createdAt,value
2019-01-20T00:01:29.050Z,88.50
2019-01-20T00:03:51.350Z,88.70
2019-01-20T00:06:13.583Z,88.20
2019-01-20T00:08:35.824Z,87.70
2019-01-20T00:10:58.079Z,87.80
2019-01-20T00:13:20.304Z,88.10
2019-01-20T00:15:42.603Z,88.20
2019-01-20T00:18:04.891Z,88.20
2019-01-20T00:20:27.240Z,88.80
2019-01-20T00:22:49.391Z,89.20
2019-01-20T00:25:11.713Z,89.50
2019-01-20T00:27:33.979Z,89.40
2019-01-20T00:29:56.235Z,89.10
2019-01-20T00:32:18.463Z,89.00
2019-01-20T00:34:40.735Z,88.90
2019-01-20T00:37:03.020Z,88.50
2019-01-20T00:39:25.228Z,88.10
2019-01-20T00:41:47.531Z,88.00
2019-01-20T00:44:09.826Z,88.30
2019-01-20T00:46:32.039Z,88.00
2019-01-20T00:48:54.307Z,88.70
2019-01-20T00:51:16.635Z,88.90
2019-01-20T00:53:38.979Z,88.90
2019-01-20T00:56:01.227Z,89.30
2019-01-20T00:58:24.058Z,89.00
2019-01-20T01:00:46.375Z,88.20
2019-01-20T01:03:08.685Z,88.10
2019-01-20T01:05:31.073Z,89.20
2019-01-20T01:07:53.392Z,88.80
2019-01-20T01:10:15.694Z,89.10
2019-01-20T01:12:38.035Z,88.90
2019-01-20T01:15:00.328Z,88.90
2019-01-20T01:17:22.530Z,88.90
2019-01-20T01:19:44.765Z,88.60
2019-01-20T01:22:07.033Z,88.30
2019-01-20T01:24:29.279Z,88.30
2019-01-20T01:26:51.515Z,88.20
2019-01-20T01:29:13.767Z,87.40
2019-01-20T01:31:36.007Z,86.90
2019-01-20T01:33:58.239Z,87.70
2019-01-20T01:36:20.520Z,88.00
2019-01-20T01:38:42.887Z,88.10
2019-01-20T01:41:05.124Z,88.20
2019-01-20T01:43:27.350Z,88.20
2019-01-20T01:45:49.664Z,88.00
2019-01-20T01:48:11.876Z,87.70
2019-01-20T01:50:34.111Z,87.70
2019-01-20T01:52:56.327Z,87.70
2019-01-20T01:55:18.599Z,87.30
2019-01-20T01:57:40.821Z,87.20
2019-01-20T02:00:04.356Z,87.20
2019-01-20T02:02:26.802Z,87.40
2019-01-20T02:04:49.059Z,87.90
2019-01-20T02:07:11.325Z,88.20
2019-01-20T02:09:33.547Z,88.10
2019-01-20T02:11:55.784Z,88.20
2019-01-20T02:14:18.067Z,88.70
2019-01-20T02:16:40.323Z,88.50
2019-01-20T02:19:02.644Z,88.60
2019-01-20T02:21:24.951Z,88.40
2019-01-20T02:23:47.187Z,88.80
2019-01-20T02:27:34.033Z,88.90
2019-01-20T02:29:56.267Z,88.60
2019-01-20T02:32:18.565Z,88.80
2019-01-20T02:34:40.790Z,89.50
2019-01-20T02:37:03.055Z,89.60
2019-01-20T02:39:25.323Z,89.50
2019-01-20T02:41:54.873Z,89.60
2019-01-20T02:44:09.819Z,89.80
2019-01-20T02:46:32.019Z,90.00
2019-01-20T02:48:54.256Z,90.10
2019-01-20T02:51:16.468Z,90.20
2019-01-20T02:53:38.723Z,90.20
2019-01-20T02:56:00.999Z,89.70
2019-01-20T02:58:23.295Z,89.10
2019-01-20T03:00:45.572Z,89.10
2019-01-20T03:03:07.826Z,88.70
2019-01-20T03:05:30.115Z,89.10
2019-01-20T03:07:52.396Z,89.00
2019-01-20T03:10:14.733Z,89.20
2019-01-20T03:12:37.024Z,89.50
2019-01-20T03:14:59.272Z,89.30
2019-01-20T03:17:21.582Z,89.20
2019-01-20T03:19:43.881Z,89.50
2019-01-20T03:22:06.123Z,90.10
2019-01-20T03:24:28.392Z,90.20
2019-01-20T03:26:50.625Z,90.30
2019-01-20T03:29:12.840Z,90.30
2019-01-20T03:31:35.052Z,90.20
2019-01-20T03:33:57.316Z,90.10
2019-01-20T03:36:19.547Z,90.10
2019-01-20T03:38:41.777Z,90.10
2019-01-20T03:41:04.024Z,90.10
2019-01-20T03:43:26.302Z,90.20
2019-01-20T03:45:48.531Z,90.10
2019-01-20T03:48:10.803Z,90.00
2019-01-20T03:50:33.065Z,90.00
2019-01-20T03:52:55.292Z,89.30
2019-01-20T03:55:17.848Z,88.80
2019-01-20T03:57:40.107Z,89.50
2019-01-20T04:00:02.416Z,90.20
2019-01-20T04:02:24.713Z,90.30
2019-01-20T04:04:47.015Z,90.70
2019-01-20T04:07:09.896Z,90.80
2019-01-20T04:09:32.152Z,90.80
2019-01-20T04:11:54.394Z,90.90
2019-01-20T04:14:16.653Z,90.80
2019-01-20T04:16:38.903Z,90.80
2019-01-20T04:19:01.165Z,90.80
2019-01-20T04:21:23.383Z,90.70
2019-01-20T04:23:45.664Z,90.20
2019-01-20T04:26:07.887Z,89.70
2019-01-20T04:28:30.111Z,89.60
2019-01-20T04:30:52.351Z,89.20
2019-01-20T04:33:14.600Z,89.40
2019-01-20T04:35:36.817Z,89.50
2019-01-20T04:37:59.018Z,90.00
2019-01-20T04:40:22.393Z,90.10
2019-01-20T04:42:44.662Z,90.40
2019-01-20T04:45:08.536Z,90.50
2019-01-20T04:47:30.800Z,90.70
2019-01-20T04:49:53.033Z,90.60
2019-01-20T04:52:15.252Z,90.10
2019-01-20T04:54:37.483Z,90.00
2019-01-20T04:56:59.747Z,89.80
2019-01-20T04:59:21.981Z,89.90
2019-01-20T05:01:44.280Z,89.80
2019-01-20T05:04:06.555Z,90.00
2019-01-20T05:06:28.813Z,90.10
2019-01-20T05:08:51.068Z,90.20
2019-01-20T05:11:13.307Z,90.30
2019-01-20T05:13:35.536Z,90.20
2019-01-20T05:15:57.772Z,89.90
2019-01-20T05:18:19.968Z,89.40
2019-01-20T05:20:42.205Z,88.80
2019-01-20T05:23:04.496Z,88.60
2019-01-20T05:25:26.727Z,89.30
2019-01-20T05:27:49.001Z,89.30
2019-01-20T05:30:14.199Z,88.90
2019-01-20T05:32:36.468Z,89.50
2019-01-20T05:34:58.703Z,89.90
2019-01-20T05:37:20.955Z,89.80
2019-01-20T05:39:43.175Z,89.60
2019-01-20T05:42:05.433Z,89.30
2019-01-20T05:44:27.713Z,88.90
2019-01-20T05:46:49.940Z,88.70
2019-01-20T05:49:12.226Z,89.00
2019-01-20T05:51:34.433Z,88.90
2019-01-20T05:53:56.669Z,88.20
2019-01-20T05:56:18.927Z,87.80
2019-01-20T05:58:41.171Z,87.90
2019-01-20T06:01:03.419Z,87.60
2019-01-20T06:03:25.612Z,87.30
2019-01-20T06:05:47.895Z,87.80
2019-01-20T06:08:10.102Z,88.20
2019-01-20T06:10:32.335Z,87.80
2019-01-20T06:12:54.663Z,88.20
2019-01-20T06:15:17.547Z,88.10
2019-01-20T06:17:39.781Z,88.10
2019-01-20T06:20:02.192Z,88.10
2019-01-20T06:22:24.450Z,88.00
2019-01-20T06:24:46.683Z,88.20
2019-01-20T06:27:08.907Z,88.50
2019-01-20T06:29:31.132Z,88.40
2019-01-20T06:31:53.383Z,88.90
2019-01-20T06:34:15.595Z,88.10
2019-01-20T06:36:37.819Z,87.80
2019-01-20T06:39:00.055Z,87.80
2019-01-20T06:41:22.307Z,88.80
2019-01-20T06:43:44.521Z,89.40
2019-01-20T06:46:06.776Z,89.60
2019-01-20T06:48:29.011Z,90.00
2019-01-20T06:50:51.275Z,89.80
2019-01-20T06:53:13.483Z,89.00
2019-01-20T06:55:35.693Z,88.30
2019-01-20T06:57:57.924Z,87.80
2019-01-20T07:00:21.647Z,88.60
2019-01-20T07:02:43.960Z,89.50
2019-01-20T07:05:06.652Z,89.80
2019-01-20T07:07:28.891Z,89.70
2019-01-20T07:09:51.101Z,90.00
2019-01-20T07:12:13.355Z,90.10
2019-01-20T07:14:35.606Z,90.20
2019-01-20T07:16:57.823Z,90.20
2019-01-20T07:19:20.064Z,90.30
2019-01-20T07:21:42.305Z,90.40
2019-01-20T07:24:04.555Z,90.40
2019-01-20T07:26:26.769Z,90.40
2019-01-20T07:28:48.979Z,90.40
2019-01-20T07:31:11.214Z,90.50
2019-01-20T07:33:33.435Z,90.70
2019-01-20T07:35:55.711Z,90.70
2019-01-20T07:38:17.956Z,90.80
2019-01-20T07:40:40.211Z,90.90
2019-01-20T07:43:02.432Z,91.00
2019-01-20T07:45:24.668Z,91.10
2019-01-20T07:47:46.904Z,91.20
2019-01-20T07:50:12.481Z,91.20
2019-01-20T07:52:34.712Z,91.20
2019-01-20T07:54:56.927Z,91.20
2019-01-20T07:57:19.157Z,91.30
2019-01-20T07:59:41.436Z,91.40
2019-01-20T08:02:03.725Z,91.60
2019-01-20T08:04:25.964Z,91.60
2019-01-20T08:06:48.211Z,91.70
2019-01-20T08:09:10.418Z,91.80
2019-01-20T08:11:32.667Z,91.90
2019-01-20T08:13:54.904Z,91.90
2019-01-20T08:16:17.098Z,92.10
2019-01-20T08:18:39.328Z,92.20
2019-01-20T08:21:01.597Z,92.40
2019-01-20T08:23:23.814Z,92.30
2019-01-20T08:25:46.054Z,92.10
2019-01-20T08:28:08.277Z,91.90
2019-01-20T08:30:30.543Z,92.00
2019-01-20T08:32:54.407Z,92.10
2019-01-20T08:35:18.243Z,92.20
2019-01-20T08:37:40.578Z,92.70
2019-01-20T08:40:03.733Z,92.30
2019-01-20T08:42:26.042Z,92.20
2019-01-20T08:44:48.255Z,91.90
2019-01-20T08:47:28.145Z,91.50
2019-01-20T08:49:50.345Z,90.80
2019-01-20T08:52:12.590Z,90.70
2019-01-20T08:54:34.799Z,90.60
2019-01-20T08:56:57.011Z,90.40
2019-01-20T08:59:19.252Z,90.00
2019-01-20T09:01:41.507Z,89.80
2019-01-20T09:04:03.740Z,89.40
2019-01-20T09:06:26.011Z,90.00
2019-01-20T09:08:48.240Z,88.90
2019-01-20T09:11:10.502Z,88.70
2019-01-20T09:13:39.350Z,88.10
2019-01-20T09:15:55.017Z,87.40
2019-01-20T09:18:17.252Z,87.60
2019-01-20T09:20:39.499Z,86.70
2019-01-20T09:23:01.748Z,86.40
2019-01-20T09:25:24.008Z,87.10
2019-01-20T09:27:46.251Z,87.00
2019-01-20T09:30:12.655Z,87.10
2019-01-20T09:32:34.868Z,87.40
2019-01-20T09:34:57.067Z,87.40
2019-01-20T09:37:19.273Z,86.60
2019-01-20T09:39:41.519Z,86.10
2019-01-20T09:42:03.803Z,86.10
2019-01-20T09:44:26.000Z,86.60
2019-01-20T09:46:48.247Z,85.80
2019-01-20T09:49:10.518Z,85.00
2019-01-20T09:51:32.735Z,84.60
2019-01-20T09:53:54.960Z,84.10
2019-01-20T09:56:17.192Z,84.00
2019-01-20T09:58:39.400Z,84.40
2019-01-20T10:01:01.657Z,84.20
2019-01-20T10:03:23.923Z,83.60
2019-01-20T10:05:46.143Z,82.40
2019-01-20T10:08:08.369Z,82.10
2019-01-20T10:10:30.571Z,82.30
2019-01-20T10:12:52.815Z,81.40
2019-01-20T10:15:15.100Z,81.30
2019-01-20T10:17:37.376Z,81.30
2019-01-20T10:19:59.592Z,81.30
2019-01-20T10:22:21.826Z,81.30
2019-01-20T10:24:44.079Z,81.30
2019-01-20T10:27:06.287Z,81.70
2019-01-20T10:29:28.582Z,81.50
2019-01-20T10:31:50.790Z,81.40
2019-01-20T10:34:13.006Z,81.70
2019-01-20T10:36:35.266Z,81.80
2019-01-20T10:38:57.528Z,82.50
2019-01-20T10:41:19.725Z,83.30
2019-01-20T10:43:41.920Z,81.90
2019-01-20T10:46:04.223Z,81.30
2019-01-20T10:48:26.435Z,81.30
2019-01-20T10:50:48.733Z,81.30
2019-01-20T10:53:10.986Z,80.90
2019-01-20T10:55:33.383Z,80.60
2019-01-20T10:57:55.579Z,80.40
2019-01-20T11:00:20.808Z,80.30
2019-01-20T11:02:43.067Z,81.30
2019-01-20T11:05:05.551Z,80.50
2019-01-20T11:07:27.776Z,80.50
2019-01-20T11:09:49.997Z,81.30
2019-01-20T11:12:12.244Z,81.90
2019-01-20T11:14:34.476Z,82.30
2019-01-20T11:16:56.720Z,83.00
2019-01-20T11:19:18.955Z,83.40
2019-01-20T11:21:41.162Z,84.10
2019-01-20T11:24:03.447Z,83.80
2019-01-20T11:26:25.720Z,82.90
2019-01-20T11:28:47.928Z,82.70
2019-01-20T11:31:10.152Z,82.50
2019-01-20T11:33:32.472Z,82.10
2019-01-20T11:35:54.695Z,82.10
2019-01-20T11:38:16.923Z,82.60
2019-01-20T11:40:39.140Z,82.60
2019-01-20T11:43:01.410Z,82.70
2019-01-20T11:45:25.728Z,82.90
2019-01-20T11:47:47.979Z,82.90
2019-01-20T11:50:10.300Z,83.20
2019-01-20T11:52:32.499Z,83.10
2019-01-20T11:54:54.711Z,81.50
2019-01-20T11:57:16.910Z,82.20
2019-01-20T11:59:39.163Z,81.70
2019-01-20T12:02:01.422Z,82.50
2019-01-20T12:04:23.687Z,82.70
2019-01-20T12:06:45.927Z,82.60
2019-01-20T12:09:08.174Z,83.10
2019-01-20T12:11:30.464Z,83.20
2019-01-20T12:13:52.679Z,83.70
2019-01-20T12:16:14.925Z,83.60
2019-01-20T12:18:37.158Z,83.10
2019-01-20T12:20:59.654Z,83.40
2019-01-20T12:23:21.879Z,83.10
2019-01-20T12:25:44.325Z,83.20
2019-01-20T12:28:06.576Z,83.00
2019-01-20T12:30:30.820Z,82.90
2019-01-20T12:32:53.041Z,82.70
2019-01-20T12:35:15.317Z,82.60
2019-01-20T12:37:37.548Z,83.90
2019-01-20T12:39:59.760Z,84.30
2019-01-20T12:42:22.002Z,85.50
2019-01-20T12:44:44.245Z,86.60
2019-01-20T12:47:06.484Z,87.20
2019-01-20T12:51:57.022Z,88.60
2019-01-20T12:54:19.275Z,88.00
2019-01-20T12:56:41.507Z,88.40
2019-01-20T12:59:03.760Z,89.30
2019-01-20T13:01:25.992Z,89.70
2019-01-20T13:03:48.275Z,90.10
2019-01-20T13:06:10.604Z,90.20
2019-01-20T13:08:32.911Z,90.40
2019-01-20T13:10:55.113Z,90.50
2019-01-20T13:13:17.396Z,90.30
2019-01-20T13:15:39.640Z,90.20
2019-01-20T13:18:01.905Z,90.50
2019-01-20T13:20:24.461Z,90.90
2019-01-20T13:22:46.784Z,90.80
2019-01-20T13:25:10.571Z,91.00
2019-01-20T13:27:32.883Z,91.00
2019-01-20T13:29:55.118Z,91.10
2019-01-20T13:32:17.351Z,91.40
2019-01-20T13:34:39.586Z,91.40
2019-01-20T13:37:01.867Z,91.20
2019-01-20T13:39:24.087Z,91.50
2019-01-20T13:41:46.313Z,91.80
2019-01-20T13:44:08.547Z,92.10
2019-01-20T13:46:30.791Z,92.40
2019-01-20T13:48:53.013Z,92.00
2019-01-20T13:51:15.235Z,91.90
2019-01-20T13:53:38.381Z,91.80
2019-01-20T13:56:01.264Z,91.80
2019-01-20T13:58:21.973Z,91.80
2019-01-20T14:00:44.273Z,91.90
2019-01-20T14:03:06.543Z,92.00
2019-01-20T14:05:28.810Z,91.90
2019-01-20T14:07:51.107Z,92.00
2019-01-20T14:10:14.787Z,91.90
2019-01-20T14:12:37.050Z,91.90
2019-01-20T14:14:59.307Z,91.90
2019-01-20T14:17:21.576Z,91.70
2019-01-20T14:19:43.790Z,91.80
2019-01-20T14:22:06.055Z,91.90
2019-01-20T14:24:28.314Z,92.00
2019-01-20T14:26:50.575Z,92.20
2019-01-20T14:29:12.816Z,92.40
2019-01-20T14:31:35.075Z,92.20
2019-01-20T14:33:57.289Z,92.40
2019-01-20T14:36:19.597Z,92.50
2019-01-20T14:38:41.806Z,92.80
2019-01-20T14:41:04.131Z,92.60
2019-01-20T14:43:26.396Z,92.60
2019-01-20T14:45:48.664Z,92.40
2019-01-20T14:48:10.938Z,92.40
2019-01-20T14:50:33.193Z,92.50
2019-01-20T14:52:55.479Z,92.70
2019-01-20T14:55:17.751Z,92.90
2019-01-20T14:57:39.960Z,93.00
2019-01-20T15:00:02.419Z,93.20
2019-01-20T15:02:24.679Z,93.30
2019-01-20T15:04:46.896Z,93.30
2019-01-20T15:07:09.143Z,93.20
2019-01-20T15:09:31.440Z,93.30
2019-01-20T15:11:53.667Z,93.30
2019-01-20T15:14:15.925Z,93.40
2019-01-20T15:16:38.152Z,93.40
2019-01-20T15:19:00.426Z,93.60
2019-01-20T15:21:22.641Z,93.60
2019-01-20T15:23:44.846Z,93.40
2019-01-20T15:26:07.052Z,93.40
2019-01-20T15:28:29.379Z,93.20
2019-01-20T15:30:51.608Z,93.20
2019-01-20T15:33:13.951Z,93.20
2019-01-20T15:35:36.203Z,93.30
2019-01-20T15:37:58.487Z,93.10
2019-01-20T15:40:20.807Z,93.20
2019-01-20T15:42:43.048Z,93.30
2019-01-20T15:45:07.935Z,93.60
2019-01-20T15:47:30.187Z,93.70
2019-01-20T15:49:52.415Z,93.60
2019-01-20T15:52:14.635Z,93.60
2019-01-20T15:54:36.874Z,93.60
2019-01-20T15:56:59.168Z,94.00
2019-01-20T15:59:21.384Z,94.20
2019-01-20T16:01:43.611Z,94.20
2019-01-20T16:04:05.882Z,93.70
2019-01-20T16:06:28.096Z,93.90
2019-01-20T16:08:50.292Z,94.00
2019-01-20T16:11:12.532Z,94.20
2019-01-20T16:13:34.801Z,94.10
2019-01-20T16:15:56.999Z,94.20
2019-01-20T16:18:19.239Z,94.00
2019-01-20T16:20:41.442Z,94.00
2019-01-20T16:23:05.627Z,94.10
2019-01-20T16:25:29.807Z,94.00
2019-01-20T16:27:52.024Z,94.20
2019-01-20T16:30:16.887Z,94.20
2019-01-20T16:32:39.091Z,94.40
2019-01-20T16:35:01.338Z,94.60
2019-01-20T16:37:23.555Z,94.60
2019-01-20T16:39:45.949Z,94.90
2019-01-20T16:42:08.094Z,94.50
2019-01-20T16:44:30.325Z,94.40
2019-01-20T16:46:52.752Z,94.40
2019-01-20T16:49:14.960Z,94.30
2019-01-20T16:51:37.210Z,93.90
2019-01-20T16:53:59.431Z,94.10
2019-01-20T16:56:21.700Z,94.10
2019-01-20T16:58:44.004Z,94.20
2019-01-20T17:01:06.249Z,93.90
2019-01-20T17:03:28.496Z,94.20
2019-01-20T17:05:50.724Z,94.30
2019-01-20T17:08:12.994Z,94.00
2019-01-20T17:10:37.470Z,93.90
2019-01-20T17:13:00.097Z,93.90
2019-01-20T17:15:25.866Z,94.10
2019-01-20T17:17:48.446Z,94.20
2019-01-20T17:20:12.069Z,94.50
2019-01-20T17:22:34.971Z,94.50
2019-01-20T17:24:57.464Z,94.40
2019-01-20T17:27:20.428Z,94.50
2019-01-20T17:29:43.706Z,94.20
2019-01-20T17:32:06.956Z,94.30
2019-01-20T17:34:29.348Z,93.90
2019-01-20T17:36:52.588Z,94.10
2019-01-20T17:39:15.528Z,94.10
2019-01-20T17:41:38.979Z,94.10
2019-01-20T17:44:03.776Z,94.30
2019-01-20T17:46:27.706Z,94.60
2019-01-20T17:48:50.950Z,94.40
2019-01-20T17:51:13.713Z,94.40
2019-01-20T17:53:36.899Z,94.20
2019-01-20T17:56:00.039Z,94.30
2019-01-20T17:58:24.518Z,94.20
2019-01-20T18:00:51.489Z,93.90
2019-01-20T18:03:14.486Z,94.00
2019-01-20T18:05:38.316Z,93.70
2019-01-20T18:08:01.526Z,94.00
2019-01-20T18:10:24.577Z,94.10
2019-01-20T18:12:48.618Z,94.20
2019-01-20T18:15:12.542Z,94.30
2019-01-20T18:17:35.716Z,94.40
2019-01-20T18:19:58.103Z,94.60
2019-01-20T18:23:50.465Z,94.40
2019-01-20T18:26:12.943Z,94.50
2019-01-20T18:28:35.812Z,94.60
2019-01-20T18:30:58.368Z,94.60
2019-01-20T18:33:20.817Z,94.70
2019-01-20T18:35:43.207Z,94.60
2019-01-20T18:38:07.983Z,94.80
2019-01-20T18:40:30.978Z,94.80
2019-01-20T18:42:53.461Z,95.00
2019-01-20T18:45:18.087Z,95.00
2019-01-20T18:47:41.067Z,95.20
2019-01-20T18:50:05.682Z,95.00
2019-01-20T18:52:28.640Z,95.00
2019-01-20T18:54:51.683Z,94.70
2019-01-20T18:57:14.973Z,94.80
2019-01-20T18:59:37.894Z,94.50
2019-01-20T19:02:00.122Z,94.80
2019-01-20T19:04:22.376Z,95.10
2019-01-20T19:06:45.347Z,95.10
2019-01-20T19:09:08.891Z,95.30
2019-01-20T19:11:31.451Z,95.60
2019-01-20T19:13:53.981Z,95.70
2019-01-20T19:16:17.555Z,95.30
2019-01-20T19:18:39.919Z,95.40
2019-01-20T19:21:02.287Z,95.50
2019-01-20T19:23:25.010Z,95.40
2019-01-20T19:25:47.360Z,95.20
2019-01-20T19:28:10.060Z,95.10
2019-01-20T19:30:33.487Z,95.00
2019-01-20T19:32:56.333Z,95.00
2019-01-20T19:35:18.855Z,94.90
2019-01-20T19:37:41.522Z,94.50
2019-01-20T19:40:04.956Z,94.60
2019-01-20T19:42:27.515Z,94.70
2019-01-20T19:44:49.753Z,94.90
2019-01-20T19:47:12.157Z,95.10
2019-01-20T19:49:35.000Z,95.10
2019-01-20T19:51:57.474Z,95.00
2019-01-20T19:54:19.841Z,95.00
2019-01-20T19:56:42.451Z,94.70
2019-01-20T19:59:04.725Z,94.60
2019-01-20T20:01:30.984Z,94.60
2019-01-20T20:03:49.907Z,94.80
2019-01-20T20:06:13.104Z,95.10
2019-01-20T20:08:35.656Z,95.10
2019-01-20T20:10:58.207Z,95.10
2019-01-20T20:13:20.556Z,95.10
2019-01-20T20:15:42.811Z,95.20
2019-01-20T20:18:05.140Z,95.20
2019-01-20T20:20:27.429Z,95.30
2019-01-20T20:22:49.721Z,95.50
2019-01-20T20:25:12.680Z,95.40
2019-01-20T20:27:34.939Z,95.40
2019-01-20T20:29:57.200Z,95.50
2019-01-20T20:32:19.480Z,95.50
2019-01-20T20:34:41.695Z,95.30
2019-01-20T20:37:03.920Z,95.40
2019-01-20T20:39:26.153Z,95.40
2019-01-20T20:41:48.408Z,95.50
2019-01-20T20:44:10.647Z,95.70
2019-01-20T20:46:32.900Z,95.60
2019-01-20T20:48:55.161Z,95.40
2019-01-20T20:51:17.456Z,95.20
2019-01-20T20:53:39.715Z,95.30
2019-01-20T20:56:01.976Z,95.40
2019-01-20T20:58:24.220Z,95.30
2019-01-20T21:00:49.884Z,95.10
2019-01-20T21:03:19.147Z,95.30
2019-01-20T21:05:40.767Z,95.30
2019-01-20T21:08:03.078Z,95.20
2019-01-20T21:10:25.303Z,95.50
2019-01-20T21:12:47.565Z,95.30
2019-01-20T21:15:11.760Z,95.40
2019-01-20T21:17:34.088Z,95.60
2019-01-20T21:19:56.386Z,95.80
2019-01-20T21:22:18.607Z,95.90
2019-01-20T21:24:40.812Z,95.90
2019-01-20T21:27:03.104Z,95.80
2019-01-20T21:29:25.314Z,95.70
2019-01-20T21:31:47.607Z,95.70
2019-01-20T21:34:09.867Z,95.40
2019-01-20T21:36:32.111Z,95.40
2019-01-20T21:38:54.325Z,95.40
2019-01-20T21:41:16.574Z,95.60
2019-01-20T21:43:38.865Z,95.60
2019-01-20T21:46:01.167Z,95.70
2019-01-20T21:48:23.394Z,95.80
2019-01-20T21:50:45.656Z,95.90
2019-01-20T21:53:07.917Z,95.80
2019-01-20T21:55:30.143Z,95.90
2019-01-20T21:57:52.437Z,95.60
2019-01-20T22:00:17.166Z,95.80
2019-01-20T22:02:39.372Z,95.20
2019-01-20T22:05:01.627Z,95.50
2019-01-20T22:07:23.827Z,95.70
2019-01-20T22:09:46.066Z,95.80
2019-01-20T22:12:08.412Z,95.90
2019-01-20T22:14:30.712Z,96.20
2019-01-20T22:16:53.167Z,95.80
2019-01-20T22:19:15.290Z,95.80
2019-01-20T22:21:37.512Z,95.60
2019-01-20T22:23:59.704Z,95.40
2019-01-20T22:26:21.933Z,95.40
2019-01-20T22:28:44.180Z,95.50
2019-01-20T22:31:06.403Z,95.70
2019-01-20T22:33:28.650Z,95.80
2019-01-20T22:35:50.887Z,95.80
2019-01-20T22:38:13.105Z,95.80
2019-01-20T22:40:35.344Z,95.80
2019-01-20T22:42:57.652Z,95.90
2019-01-20T22:45:23.310Z,95.90
2019-01-20T22:47:45.338Z,95.90
2019-01-20T22:50:08.736Z,96.00
2019-01-20T22:52:31.040Z,95.90
2019-01-20T22:54:53.223Z,95.90
2019-01-20T22:57:15.447Z,95.90
2019-01-20T22:59:37.707Z,95.70
2019-01-20T23:01:59.967Z,95.60
2019-01-20T23:04:22.212Z,95.80
2019-01-20T23:06:44.438Z,95.70
2019-01-20T23:09:06.952Z,95.70
2019-01-20T23:11:29.086Z,95.80
2019-01-20T23:13:51.355Z,95.70
2019-01-20T23:16:13.583Z,95.70
2019-01-20T23:18:35.813Z,95.80
2019-01-20T23:20:58.062Z,95.60
2019-01-20T23:23:20.320Z,95.60
2019-01-20T23:25:42.576Z,95.70
2019-01-20T23:28:04.807Z,95.70
2019-01-20T23:30:27.074Z,95.70
2019-01-20T23:32:49.299Z,95.60
2019-01-20T23:35:11.551Z,95.50
2019-01-20T23:37:33.835Z,95.60
2019-01-20T23:39:56.094Z,95.20
2019-01-20T23:42:18.355Z,95.40
2019-01-20T23:44:40.651Z,95.50
2019-01-20T23:47:02.903Z,95.70
2019-01-20T23:49:25.337Z,95.60
2019-01-20T23:51:47.548Z,95.30
2019-01-20T23:54:09.783Z,95.10
2019-01-20T23:56:32.029Z,95.20
2019-01-20T23:58:54.274Z,95.40
